Center Brunswick, New York
Current Conditions -  °F | °C
As of 1:51 AM on Sunday 23 Nov 2014 (Local Time) from KALB Reporting Station
Light Rain Light Rain  
Wind Chill: 28°   Ceiling: 4000
Heat Index: 36°   Visibility: 8mi
Dew Point: 30°   Wind: 12mph
Humidity: 79%   Direction: 170°S
Pressure: 30.09"   Gusts: NA
Location:  42.7478°N, 73.6049°W
Report Text: KALB 230651Z 17010KT 8SM -RA OVC040 02/M01 A3009 RMK AO2 SLP192 P0004 I1000 T00221011
Loading
Personal Weather Stations






























Interactive Weather Map New forecast layout! Learn more

10-Day Weather Forecast

Advertisements
Track Severe Weather on mobile